sensor_id;sensor_type;location;lat;lon;timestamp;P1;durP1;ratioP1;P2;durP2;ratioP2
11711;SDS011;5912;51.034;6.984;2022-09-01T00:01:41;2.40;;;2.00;;
11711;SDS011;5912;51.034;6.984;2022-09-01T00:04:08;2.20;;;2.00;;
11711;SDS011;5912;51.034;6.984;2022-09-01T00:06:36;2.40;;;2.10;;
11711;SDS011;5912;51.034;6.984;2022-09-01T00:09:05;1.90;;;1.80;;
11711;SDS011;5912;51.034;6.984;2022-09-01T00:11:32;1.98;;;1.85;;
11711;SDS011;5912;51.034;6.984;2022-09-01T00:13:58;5.18;;;2.00;;
11711;SDS011;5912;51.034;6.984;2022-09-01T00:16:25;2.55;;;1.80;;
11711;SDS011;5912;51.034;6.984;2022-09-01T00:18:52;2.13;;;1.92;;
11711;SDS011;5912;51.034;6.984;2022-09-01T00:24:25;2.13;;;1.90;;
11711;SDS011;5912;51.034;6.984;2022-09-01T00:26:51;4.50;;;1.95;;
11711;SDS011;5912;51.034;6.984;2022-09-01T00:29:17;2.20;;;2.00;;
11711;SDS011;5912;51.034;6.984;2022-09-01T00:31:43;2.25;;;2.03;;
11711;SDS011;5912;51.034;6.984;2022-09-01T00:34:08;1.90;;;1.70;;
11711;SDS011;5912;51.034;6.984;2022-09-01T00:36:34;3.42;;;1.88;;
11711;SDS011;5912;51.034;6.984;2022-09-01T00:38:59;2.42;;;2.22;;
11711;SDS011;5912;51.034;6.984;2022-09-01T00:41:26;2.72;;;2.30;;
11711;SDS011;5912;51.034;6.984;2022-09-01T00:43:58;1.90;;;1.70;;
11711;SDS011;5912;51.034;6.984;2022-09-01T00:46:28;2.63;;;2.20;;
11711;SDS011;5912;51.034;6.984;2022-09-01T00:49:00;2.25;;;2.05;;
11711;SDS011;5912;51.034;6.984;2022-09-01T00:51:27;2.40;;;1.98;;
11711;SDS011;5912;51.034;6.984;2022-09-01T00:53:54;1.98;;;1.85;;
11711;SDS011;5912;51.034;6.984;2022-09-01T00:56:21;2.13;;;1.92;;
11711;SDS011;5912;51.034;6.984;2022-09-01T00:58:48;2.40;;;2.20;;
11711;SDS011;5912;51.034;6.984;2022-09-01T01:01:15;1.98;;;1.77;;
11711;SDS011;5912;51.034;6.984;2022-09-01T01:03:41;2.38;;;1.90;;
11711;SDS011;5912;51.034;6.984;2022-09-01T01:06:09;2.10;;;1.90;;
11711;SDS011;5912;51.034;6.984;2022-09-01T01:08:38;2.20;;;2.00;;
11711;SDS011;5912;51.034;6.984;2022-09-01T01:11:09;2.10;;;1.90;;
11711;SDS011;5912;51.034;6.984;2022-09-01T01:13:47;3.15;;;2.13;;
11711;SDS011;5912;51.034;6.984;2022-09-01T01:16:20;1.83;;;1.73;;
11711;SDS011;5912;51.034;6.984;2022-09-01T01:18:46;2.15;;;1.98;;
11711;SDS011;5912;51.034;6.984;2022-09-01T01:21:19;2.42;;;1.90;;
11711;SDS011;5912;51.034;6.984;2022-09-01T01:24:25;2.10;;;1.90;;
11711;SDS011;5912;51.034;6.984;2022-09-01T01:26:52;2.20;;;2.00;;
11711;SDS011;5912;51.034;6.984;2022-09-01T01:29:21;2.08;;;1.90;;
11711;SDS011;5912;51.034;6.984;2022-09-01T01:31:48;2.88;;;2.10;;
11711;SDS011;5912;51.034;6.984;2022-09-01T01:34:16;2.40;;;2.20;;
11711;SDS011;5912;51.034;6.984;2022-09-01T01:36:42;2.92;;;1.92;;
11711;SDS011;5912;51.034;6.984;2022-09-01T01:39:17;2.33;;;1.80;;
11711;SDS011;5912;51.034;6.984;2022-09-01T01:41:46;2.22;;;2.03;;
11711;SDS011;5912;51.034;6.984;2022-09-01T01:44:15;1.77;;;1.67;;
11711;SDS011;5912;51.034;6.984;2022-09-01T01:46:43;1.88;;;1.73;;
11711;SDS011;5912;51.034;6.984;2022-09-01T01:49:11;2.03;;;1.80;;
11711;SDS011;5912;51.034;6.984;2022-09-01T01:51:39;1.83;;;1.73;;
11711;SDS011;5912;51.034;6.984;2022-09-01T01:54:06;2.20;;;2.00;;
11711;SDS011;5912;51.034;6.984;2022-09-01T01:56:31;2.00;;;1.80;;
11711;SDS011;5912;51.034;6.984;2022-09-01T01:58:59;3.75;;;1.95;;
11711;SDS011;5912;51.034;6.984;2022-09-01T02:01:27;1.92;;;1.70;;
11711;SDS011;5912;51.034;6.984;2022-09-01T02:03:56;1.95;;;1.75;;
11711;SDS011;5912;51.034;6.984;2022-09-01T02:06:23;1.70;;;1.40;;
11711;SDS011;5912;51.034;6.984;2022-09-01T02:08:50;1.70;;;1.60;;
11711;SDS011;5912;51.034;6.984;2022-09-01T02:11:21;2.03;;;1.70;;
11711;SDS011;5912;51.034;6.984;2022-09-01T02:13:47;1.65;;;1.55;;
11711;SDS011;5912;51.034;6.984;2022-09-01T02:16:13;1.65;;;1.55;;
11711;SDS011;5912;51.034;6.984;2022-09-01T02:18:42;1.92;;;1.73;;
11711;SDS011;5912;51.034;6.984;2022-09-01T02:21:12;2.38;;;1.80;;
11711;SDS011;5912;51.034;6.984;2022-09-01T02:23:44;1.60;;;1.50;;
11711;SDS011;5912;51.034;6.984;2022-09-01T02:26:13;1.88;;;1.67;;
11711;SDS011;5912;51.034;6.984;2022-09-01T02:28:40;2.10;;;1.90;;
11711;SDS011;5912;51.034;6.984;2022-09-01T02:31:07;1.88;;;1.52;;
11711;SDS011;5912;51.034;6.984;2022-09-01T02:33:35;2.53;;;1.70;;
11711;SDS011;5912;51.034;6.984;2022-09-01T02:36:03;2.72;;;1.90;;
11711;SDS011;5912;51.034;6.984;2022-09-01T02:38:37;1.40;;;1.30;;
11711;SDS011;5912;51.034;6.984;2022-09-01T02:41:07;1.60;;;1.50;;
11711;SDS011;5912;51.034;6.984;2022-09-01T02:43:32;1.63;;;1.40;;
11711;SDS011;5912;51.034;6.984;2022-09-01T02:45:59;1.60;;;1.50;;
11711;SDS011;5912;51.034;6.984;2022-09-01T02:48:26;1.70;;;1.60;;
11711;SDS011;5912;51.034;6.984;2022-09-01T02:50:56;1.60;;;1.40;;
11711;SDS011;5912;51.034;6.984;2022-09-01T02:53:23;1.90;;;1.40;;
11711;SDS011;5912;51.034;6.984;2022-09-01T02:55:49;1.60;;;1.50;;
11711;SDS011;5912;51.034;6.984;2022-09-01T02:58:15;2.00;;;1.17;;
11711;SDS011;5912;51.034;6.984;2022-09-01T03:00:44;1.63;;;1.40;;
11711;SDS011;5912;51.034;6.984;2022-09-01T03:03:10;1.77;;;1.40;;
11711;SDS011;5912;51.034;6.984;2022-09-01T03:05:36;1.95;;;1.60;;
11711;SDS011;5912;51.034;6.984;2022-09-01T03:08:04;1.50;;;1.40;;
11711;SDS011;5912;51.034;6.984;2022-09-01T03:10:39;2.10;;;1.42;;
11711;SDS011;5912;51.034;6.984;2022-09-01T03:13:15;1.63;;;1.33;;
11711;SDS011;5912;51.034;6.984;2022-09-01T03:15:44;1.48;;;1.15;;
11711;SDS011;5912;51.034;6.984;2022-09-01T03:18:11;1.48;;;1.38;;
11711;SDS011;5912;51.034;6.984;2022-09-01T03:20:39;2.15;;;1.60;;
11711;SDS011;5912;51.034;6.984;2022-09-01T03:23:09;1.77;;;1.23;;
11711;SDS011;5912;51.034;6.984;2022-09-01T03:25:39;1.60;;;1.40;;
11711;SDS011;5912;51.034;6.984;2022-09-01T03:28:09;2.53;;;1.30;;
11711;SDS011;5912;51.034;6.984;2022-09-01T03:30:37;1.52;;;1.30;;
11711;SDS011;5912;51.034;6.984;2022-09-01T03:33:07;1.35;;;1.10;;
11711;SDS011;5912;51.034;6.984;2022-09-01T03:35:33;1.50;;;1.40;;
11711;SDS011;5912;51.034;6.984;2022-09-01T03:44:02;2.72;;;1.63;;
11711;SDS011;5912;51.034;6.984;2022-09-01T03:46:28;3.67;;;1.70;;
11711;SDS011;5912;51.034;6.984;2022-09-01T03:48:56;1.88;;;1.48;;
11711;SDS011;5912;51.034;6.984;2022-09-01T03:51:24;1.50;;;1.40;;
11711;SDS011;5912;51.034;6.984;2022-09-01T03:53:51;1.60;;;1.50;;
11711;SDS011;5912;51.034;6.984;2022-09-01T03:56:18;2.03;;;1.70;;
11711;SDS011;5912;51.034;6.984;2022-09-01T03:58:45;1.85;;;1.65;;
11711;SDS011;5912;51.034;6.984;2022-09-01T04:01:11;2.17;;;1.60;;
11711;SDS011;5912;51.034;6.984;2022-09-01T04:03:36;2.00;;;1.50;;
11711;SDS011;5912;51.034;6.984;2022-09-01T04:06:04;1.95;;;1.70;;
11711;SDS011;5912;51.034;6.984;2022-09-01T04:08:32;1.80;;;1.60;;
11711;SDS011;5912;51.034;6.984;2022-09-01T04:11:00;2.08;;;1.88;;
11711;SDS011;5912;51.034;6.984;2022-09-01T04:13:38;3.30;;;1.90;;
11711;SDS011;5912;51.034;6.984;2022-09-01T04:16:05;1.92;;;1.67;;
11711;SDS011;5912;51.034;6.984;2022-09-01T04:18:54;1.60;;;1.50;;
11711;SDS011;5912;51.034;6.984;2022-09-01T04:21:19;1.73;;;1.50;;
11711;SDS011;5912;51.034;6.984;2022-09-01T04:23:44;2.00;;;1.73;;
11711;SDS011;5912;51.034;6.984;2022-09-01T04:26:11;2.47;;;1.73;;
11711;SDS011;5912;51.034;6.984;2022-09-01T04:28:45;1.60;;;1.50;;
11711;SDS011;5912;51.034;6.984;2022-09-01T04:31:20;2.45;;;1.60;;
11711;SDS011;5912;51.034;6.984;2022-09-01T04:33:47;1.70;;;1.60;;
11711;SDS011;5912;51.034;6.984;2022-09-01T04:38:57;1.73;;;1.63;;
11711;SDS011;5912;51.034;6.984;2022-09-01T04:41:25;1.55;;;1.35;;
11711;SDS011;5912;51.034;6.984;2022-09-01T04:43:55;2.10;;;1.90;;
11711;SDS011;5912;51.034;6.984;2022-09-01T04:46:22;1.88;;;1.67;;
11711;SDS011;5912;51.034;6.984;2022-09-01T04:48:53;2.53;;;1.70;;
11711;SDS011;5912;51.034;6.984;2022-09-01T04:51:20;2.00;;;1.73;;
11711;SDS011;5912;51.034;6.984;2022-09-01T04:53:46;3.25;;;1.80;;
11711;SDS011;5912;51.034;6.984;2022-09-01T04:56:13;3.15;;;1.90;;
11711;SDS011;5912;51.034;6.984;2022-09-01T04:58:45;1.83;;;1.63;;
11711;SDS011;5912;51.034;6.984;2022-09-01T05:01:13;1.45;;;1.35;;
11711;SDS011;5912;51.034;6.984;2022-09-01T05:03:40;1.45;;;1.35;;
11711;SDS011;5912;51.034;6.984;2022-09-01T05:06:11;1.60;;;1.50;;
11711;SDS011;5912;51.034;6.984;2022-09-01T05:08:37;2.08;;;1.30;;
11711;SDS011;5912;51.034;6.984;2022-09-01T05:11:04;2.60;;;1.40;;
11711;SDS011;5912;51.034;6.984;2022-09-01T05:13:31;1.48;;;1.38;;
11711;SDS011;5912;51.034;6.984;2022-09-01T05:16:01;1.40;;;1.30;;
11711;SDS011;5912;51.034;6.984;2022-09-01T05:18:31;1.42;;;1.33;;
11711;SDS011;5912;51.034;6.984;2022-09-01T05:20:56;1.30;;;1.20;;
11711;SDS011;5912;51.034;6.984;2022-09-01T05:23:22;2.50;;;1.40;;
11711;SDS011;5912;51.034;6.984;2022-09-01T05:25:50;1.50;;;1.33;;
11711;SDS011;5912;51.034;6.984;2022-09-01T05:28:19;1.85;;;1.25;;
11711;SDS011;5912;51.034;6.984;2022-09-01T05:33:35;1.50;;;1.40;;
11711;SDS011;5912;51.034;6.984;2022-09-01T05:36:01;1.63;;;1.52;;
11711;SDS011;5912;51.034;6.984;2022-09-01T05:38:31;1.95;;;1.30;;
11711;SDS011;5912;51.034;6.984;2022-09-01T05:41:01;1.50;;;1.40;;
11711;SDS011;5912;51.034;6.984;2022-09-01T05:43:31;1.70;;;1.58;;
11711;SDS011;5912;51.034;6.984;2022-09-01T05:45:57;2.08;;;1.20;;
11711;SDS011;5912;51.034;6.984;2022-09-01T05:48:25;4.13;;;1.48;;
11711;SDS011;5912;51.034;6.984;2022-09-01T05:50:52;1.85;;;1.33;;
11711;SDS011;5912;51.034;6.984;2022-09-01T05:53:21;6.82;;;1.70;;
11711;SDS011;5912;51.034;6.984;2022-09-01T05:55:49;3.63;;;1.30;;
11711;SDS011;5912;51.034;6.984;2022-09-01T05:58:21;2.45;;;1.35;;
11711;SDS011;5912;51.034;6.984;2022-09-01T06:00:49;1.67;;;1.27;;
11711;SDS011;5912;51.034;6.984;2022-09-01T06:03:16;1.67;;;1.02;;
11711;SDS011;5912;51.034;6.984;2022-09-01T06:05:42;1.35;;;1.08;;
11711;SDS011;5912;51.034;6.984;2022-09-01T06:08:16;1.23;;;1.13;;
11711;SDS011;5912;51.034;6.984;2022-09-01T06:10:45;1.17;;;1.05;;
11711;SDS011;5912;51.034;6.984;2022-09-01T06:13:14;1.65;;;1.10;;
11711;SDS011;5912;51.034;6.984;2022-09-01T06:15:41;1.45;;;1.20;;
11711;SDS011;5912;51.034;6.984;2022-09-01T06:18:09;1.85;;;1.20;;
11711;SDS011;5912;51.034;6.984;2022-09-01T06:20:39;1.55;;;1.05;;
11711;SDS011;5912;51.034;6.984;2022-09-01T06:23:10;1.75;;;1.10;;
11711;SDS011;5912;51.034;6.984;2022-09-01T06:25:39;1.30;;;1.00;;
11711;SDS011;5912;51.034;6.984;2022-09-01T06:28:06;2.40;;;1.20;;
11711;SDS011;5912;51.034;6.984;2022-09-01T06:30:32;1.20;;;1.10;;
11711;SDS011;5912;51.034;6.984;2022-09-01T06:33:00;1.77;;;1.00;;
11711;SDS011;5912;51.034;6.984;2022-09-01T06:35:26;1.42;;;1.00;;
11711;SDS011;5912;51.034;6.984;2022-09-01T06:37:54;1.95;;;0.90;;
11711;SDS011;5912;51.034;6.984;2022-09-01T06:40:20;1.40;;;1.30;;
11711;SDS011;5912;51.034;6.984;2022-09-01T06:42:49;1.70;;;1.20;;
11711;SDS011;5912;51.034;6.984;2022-09-01T06:45:17;2.10;;;1.17;;
11711;SDS011;5912;51.034;6.984;2022-09-01T06:47:45;1.77;;;0.95;;
11711;SDS011;5912;51.034;6.984;2022-09-01T06:50:13;1.27;;;1.00;;
11711;SDS011;5912;51.034;6.984;2022-09-01T06:52:40;1.20;;;1.02;;
11711;SDS011;5912;51.034;6.984;2022-09-01T06:55:08;4.72;;;1.20;;
11711;SDS011;5912;51.034;6.984;2022-09-01T06:57:34;3.95;;;1.33;;
11711;SDS011;5912;51.034;6.984;2022-09-01T07:00:02;2.13;;;1.10;;
11711;SDS011;5912;51.034;6.984;2022-09-01T07:02:31;2.28;;;1.10;;
11711;SDS011;5912;51.034;6.984;2022-09-01T07:04:57;1.85;;;0.90;;
11711;SDS011;5912;51.034;6.984;2022-09-01T07:07:23;1.40;;;1.15;;
11711;SDS011;5912;51.034;6.984;2022-09-01T07:09:49;1.67;;;1.10;;
11711;SDS011;5912;51.034;6.984;2022-09-01T07:12:14;0.63;;;0.63;;
11711;SDS011;5912;51.034;6.984;2022-09-01T07:14:44;1.30;;;1.00;;
11711;SDS011;5912;51.034;6.984;2022-09-01T07:17:12;1.02;;;0.88;;
11711;SDS011;5912;51.034;6.984;2022-09-01T07:19:37;1.15;;;0.80;;
11711;SDS011;5912;51.034;6.984;2022-09-01T07:22:03;1.10;;;1.00;;
11711;SDS011;5912;51.034;6.984;2022-09-01T07:24:29;1.15;;;0.77;;
11711;SDS011;5912;51.034;6.984;2022-09-01T07:26:55;1.27;;;0.95;;
11711;SDS011;5912;51.034;6.984;2022-09-01T07:29:20;1.10;;;0.77;;
11711;SDS011;5912;51.034;6.984;2022-09-01T07:31:47;1.25;;;0.70;;
11711;SDS011;5912;51.034;6.984;2022-09-01T07:34:13;1.17;;;0.80;;
11711;SDS011;5912;51.034;6.984;2022-09-01T07:36:41;0.93;;;0.80;;
11711;SDS011;5912;51.034;6.984;2022-09-01T07:39:08;2.20;;;0.82;;
11711;SDS011;5912;51.034;6.984;2022-09-01T07:41:34;1.25;;;0.95;;
11711;SDS011;5912;51.034;6.984;2022-09-01T07:44:00;1.00;;;0.70;;
11711;SDS011;5912;51.034;6.984;2022-09-01T07:46:27;1.55;;;1.15;;
11711;SDS011;5912;51.034;6.984;2022-09-01T07:48:56;0.88;;;0.80;;
11711;SDS011;5912;51.034;6.984;2022-09-01T07:51:23;1.42;;;0.65;;
11711;SDS011;5912;51.034;6.984;2022-09-01T07:53:50;1.42;;;0.80;;
11711;SDS011;5912;51.034;6.984;2022-09-01T07:56:17;1.55;;;0.85;;
11711;SDS011;5912;51.034;6.984;2022-09-01T07:58:45;1.15;;;0.90;;
11711;SDS011;5912;51.034;6.984;2022-09-01T08:01:16;1.35;;;0.80;;
11711;SDS011;5912;51.034;6.984;2022-09-01T08:03:44;0.90;;;0.60;;
11711;SDS011;5912;51.034;6.984;2022-09-01T08:06:16;0.65;;;0.60;;
11711;SDS011;5912;51.034;6.984;2022-09-01T08:08:47;1.02;;;0.70;;
11711;SDS011;5912;51.034;6.984;2022-09-01T08:11:18;1.40;;;0.60;;
11711;SDS011;5912;51.034;6.984;2022-09-01T08:13:46;0.60;;;0.60;;
11711;SDS011;5912;51.034;6.984;2022-09-01T08:16:12;1.63;;;0.75;;
11711;SDS011;5912;51.034;6.984;2022-09-01T08:18:38;1.60;;;0.80;;
11711;SDS011;5912;51.034;6.984;2022-09-01T08:21:05;1.33;;;0.73;;
11711;SDS011;5912;51.034;6.984;2022-09-01T08:23:32;0.60;;;0.60;;
11711;SDS011;5912;51.034;6.984;2022-09-01T08:25:57;0.50;;;0.50;;
11711;SDS011;5912;51.034;6.984;2022-09-01T08:28:23;1.17;;;0.60;;
11711;SDS011;5912;51.034;6.984;2022-09-01T08:30:48;1.33;;;0.82;;
11711;SDS011;5912;51.034;6.984;2022-09-01T08:33:14;0.73;;;0.60;;
11711;SDS011;5912;51.034;6.984;2022-09-01T08:35:40;0.55;;;0.55;;
11711;SDS011;5912;51.034;6.984;2022-09-01T08:38:07;0.93;;;0.52;;
11711;SDS011;5912;51.034;6.984;2022-09-01T08:40:34;0.82;;;0.60;;
11711;SDS011;5912;51.034;6.984;2022-09-01T08:49:00;1.17;;;0.65;;
11711;SDS011;5912;51.034;6.984;2022-09-01T08:51:34;0.80;;;0.60;;
11711;SDS011;5912;51.034;6.984;2022-09-01T08:57:17;2.47;;;1.05;;
11711;SDS011;5912;51.034;6.984;2022-09-01T08:59:47;1.08;;;0.70;;
11711;SDS011;5912;51.034;6.984;2022-09-01T09:02:25;1.00;;;0.77;;
11711;SDS011;5912;51.034;6.984;2022-09-01T09:11:17;1.50;;;0.63;;
11711;SDS011;5912;51.034;6.984;2022-09-01T09:16:21;1.02;;;0.60;;
11711;SDS011;5912;51.034;6.984;2022-09-01T09:18:52;2.08;;;0.70;;
11711;SDS011;5912;51.034;6.984;2022-09-01T09:21:28;0.85;;;0.73;;
11711;SDS011;5912;51.034;6.984;2022-09-01T09:26:49;3.80;;;0.80;;
11711;SDS011;5912;51.034;6.984;2022-09-01T09:29:16;0.80;;;0.63;;
11711;SDS011;5912;51.034;6.984;2022-09-01T09:31:42;0.90;;;0.80;;
11711;SDS011;5912;51.034;6.984;2022-09-01T09:34:15;0.50;;;0.50;;
11711;SDS011;5912;51.034;6.984;2022-09-01T09:36:42;3.28;;;0.70;;
11711;SDS011;5912;51.034;6.984;2022-09-01T09:39:11;0.60;;;0.57;;
11711;SDS011;5912;51.034;6.984;2022-09-01T09:41:40;1.25;;;0.75;;
11711;SDS011;5912;51.034;6.984;2022-09-01T09:46:39;0.65;;;0.50;;
11711;SDS011;5912;51.034;6.984;2022-09-01T09:51:53;0.70;;;0.70;;
11711;SDS011;5912;51.034;6.984;2022-09-01T09:54:24;4.70;;;0.80;;
11711;SDS011;5912;51.034;6.984;2022-09-01T09:57:13;0.80;;;0.77;;
11711;SDS011;5912;51.034;6.984;2022-09-01T09:59:43;0.50;;;0.50;;
11711;SDS011;5912;51.034;6.984;2022-09-01T10:04:57;0.75;;;0.50;;
11711;SDS011;5912;51.034;6.984;2022-09-01T10:10:00;0.52;;;0.52;;
11711;SDS011;5912;51.034;6.984;2022-09-01T10:12:29;0.60;;;0.55;;
11711;SDS011;5912;51.034;6.984;2022-09-01T10:15:05;0.85;;;0.75;;
11711;SDS011;5912;51.034;6.984;2022-09-01T10:17:36;0.65;;;0.50;;
11711;SDS011;5912;51.034;6.984;2022-09-01T10:20:06;1.90;;;0.63;;
11711;SDS011;5912;51.034;6.984;2022-09-01T10:22:36;1.58;;;0.85;;
11711;SDS011;5912;51.034;6.984;2022-09-01T10:25:04;1.00;;;0.80;;
11711;SDS011;5912;51.034;6.984;2022-09-01T10:27:32;2.15;;;0.80;;
11711;SDS011;5912;51.034;6.984;2022-09-01T10:30:07;1.00;;;0.60;;
11711;SDS011;5912;51.034;6.984;2022-09-01T10:32:39;0.90;;;0.65;;
11711;SDS011;5912;51.034;6.984;2022-09-01T10:35:09;1.55;;;1.25;;
11711;SDS011;5912;51.034;6.984;2022-09-01T10:37:38;1.00;;;0.90;;
11711;SDS011;5912;51.034;6.984;2022-09-01T10:42:52;0.60;;;0.60;;
11711;SDS011;5912;51.034;6.984;2022-09-01T10:50:47;1.35;;;0.70;;
11711;SDS011;5912;51.034;6.984;2022-09-01T10:56:07;0.88;;;0.70;;
11711;SDS011;5912;51.034;6.984;2022-09-01T11:04:08;0.85;;;0.73;;
11711;SDS011;5912;51.034;6.984;2022-09-01T11:09:15;1.00;;;0.80;;
11711;SDS011;5912;51.034;6.984;2022-09-01T11:11:46;1.38;;;1.02;;
11711;SDS011;5912;51.034;6.984;2022-09-01T11:14:24;1.75;;;1.00;;
11711;SDS011;5912;51.034;6.984;2022-09-01T11:24:50;0.82;;;0.80;;
11711;SDS011;5912;51.034;6.984;2022-09-01T11:30:16;0.75;;;0.75;;
11711;SDS011;5912;51.034;6.984;2022-09-01T11:32:45;0.82;;;0.75;;
11711;SDS011;5912;51.034;6.984;2022-09-01T11:35:15;1.65;;;1.00;;
11711;SDS011;5912;51.034;6.984;2022-09-01T11:37:45;0.80;;;0.60;;
11711;SDS011;5912;51.034;6.984;2022-09-01T11:40:12;0.68;;;0.68;;
11711;SDS011;5912;51.034;6.984;2022-09-01T11:42:45;1.02;;;0.70;;
11711;SDS011;5912;51.034;6.984;2022-09-01T11:45:15;1.25;;;0.90;;
11711;SDS011;5912;51.034;6.984;2022-09-01T11:47:44;0.88;;;0.80;;
11711;SDS011;5912;51.034;6.984;2022-09-01T11:50:18;1.90;;;0.80;;
11711;SDS011;5912;51.034;6.984;2022-09-01T11:53:01;2.08;;;0.80;;
11711;SDS011;5912;51.034;6.984;2022-09-01T11:57:55;1.85;;;1.13;;
11711;SDS011;5912;51.034;6.984;2022-09-01T12:00:25;1.55;;;1.10;;
11711;SDS011;5912;51.034;6.984;2022-09-01T12:02:53;0.93;;;0.80;;
11711;SDS011;5912;51.034;6.984;2022-09-01T12:05:32;2.15;;;0.90;;
11711;SDS011;5912;51.034;6.984;2022-09-01T12:08:01;1.27;;;1.15;;
11711;SDS011;5912;51.034;6.984;2022-09-01T12:10:30;1.25;;;0.93;;
11711;SDS011;5912;51.034;6.984;2022-09-01T12:13:08;0.93;;;0.82;;
11711;SDS011;5912;51.034;6.984;2022-09-01T12:15:35;1.35;;;0.90;;
11711;SDS011;5912;51.034;6.984;2022-09-01T12:20:37;0.80;;;0.73;;
11711;SDS011;5912;51.034;6.984;2022-09-01T12:23:03;1.30;;;1.00;;
11711;SDS011;5912;51.034;6.984;2022-09-01T12:25:39;0.80;;;0.70;;
11711;SDS011;5912;51.034;6.984;2022-09-01T12:28:05;0.98;;;0.90;;
11711;SDS011;5912;51.034;6.984;2022-09-01T12:30:30;1.25;;;0.85;;
11711;SDS011;5912;51.034;6.984;2022-09-01T12:32:59;1.55;;;1.02;;
11711;SDS011;5912;51.034;6.984;2022-09-01T12:35:27;1.38;;;1.15;;
11711;SDS011;5912;51.034;6.984;2022-09-01T12:38:14;0.95;;;0.90;;
11711;SDS011;5912;51.034;6.984;2022-09-01T12:40:44;1.38;;;1.10;;
11711;SDS011;5912;51.034;6.984;2022-09-01T12:43:35;1.10;;;1.00;;
11711;SDS011;5912;51.034;6.984;2022-09-01T12:46:04;1.23;;;0.90;;
11711;SDS011;5912;51.034;6.984;2022-09-01T12:48:32;1.52;;;1.20;;
11711;SDS011;5912;51.034;6.984;2022-09-01T12:51:00;1.58;;;1.10;;
11711;SDS011;5912;51.034;6.984;2022-09-01T12:53:29;1.10;;;1.00;;
11711;SDS011;5912;51.034;6.984;2022-09-01T12:56:01;1.10;;;1.00;;
11711;SDS011;5912;51.034;6.984;2022-09-01T12:58:29;1.63;;;1.40;;
11711;SDS011;5912;51.034;6.984;2022-09-01T13:00:57;1.45;;;1.20;;
11711;SDS011;5912;51.034;6.984;2022-09-01T13:03:32;1.60;;;1.50;;
11711;SDS011;5912;51.034;6.984;2022-09-01T13:05:59;1.35;;;1.15;;
11711;SDS011;5912;51.034;6.984;2022-09-01T13:08:27;1.20;;;1.10;;
11711;SDS011;5912;51.034;6.984;2022-09-01T13:10:56;1.83;;;1.48;;
11711;SDS011;5912;51.034;6.984;2022-09-01T13:13:37;2.40;;;1.40;;
11711;SDS011;5912;51.034;6.984;2022-09-01T13:16:03;1.95;;;1.20;;
11711;SDS011;5912;51.034;6.984;2022-09-01T13:18:36;1.58;;;1.30;;
11711;SDS011;5912;51.034;6.984;2022-09-01T13:21:02;1.30;;;1.20;;
11711;SDS011;5912;51.034;6.984;2022-09-01T13:23:28;3.35;;;1.67;;
11711;SDS011;5912;51.034;6.984;2022-09-01T13:25:53;1.63;;;1.50;;
11711;SDS011;5912;51.034;6.984;2022-09-01T13:28:19;1.58;;;1.48;;
11711;SDS011;5912;51.034;6.984;2022-09-01T13:30:49;1.10;;;1.00;;
11711;SDS011;5912;51.034;6.984;2022-09-01T13:33:20;1.52;;;1.17;;
11711;SDS011;5912;51.034;6.984;2022-09-01T13:35:46;1.63;;;1.35;;
11711;SDS011;5912;51.034;6.984;2022-09-01T13:38:13;1.48;;;1.30;;
11711;SDS011;5912;51.034;6.984;2022-09-01T13:40:40;4.55;;;1.52;;
11711;SDS011;5912;51.034;6.984;2022-09-01T13:43:07;1.27;;;1.17;;
11711;SDS011;5912;51.034;6.984;2022-09-01T13:45:33;1.27;;;1.15;;
11711;SDS011;5912;51.034;6.984;2022-09-01T13:47:58;1.45;;;1.10;;
11711;SDS011;5912;51.034;6.984;2022-09-01T13:50:24;1.90;;;1.02;;
11711;SDS011;5912;51.034;6.984;2022-09-01T13:52:52;1.20;;;1.10;;
11711;SDS011;5912;51.034;6.984;2022-09-01T13:55:21;1.92;;;1.23;;
11711;SDS011;5912;51.034;6.984;2022-09-01T13:57:48;1.70;;;1.17;;
11711;SDS011;5912;51.034;6.984;2022-09-01T14:00:14;1.40;;;1.25;;
11711;SDS011;5912;51.034;6.984;2022-09-01T14:02:43;1.88;;;1.17;;
11711;SDS011;5912;51.034;6.984;2022-09-01T14:05:36;1.20;;;1.10;;
11711;SDS011;5912;51.034;6.984;2022-09-01T14:08:01;2.10;;;1.08;;
11711;SDS011;5912;51.034;6.984;2022-09-01T14:10:28;1.05;;;0.95;;
11711;SDS011;5912;51.034;6.984;2022-09-01T14:12:58;1.58;;;0.98;;
11711;SDS011;5912;51.034;6.984;2022-09-01T14:15:24;1.20;;;1.10;;
11711;SDS011;5912;51.034;6.984;2022-09-01T14:17:53;1.50;;;1.20;;
11711;SDS011;5912;51.034;6.984;2022-09-01T14:20:28;1.63;;;1.35;;
11711;SDS011;5912;51.034;6.984;2022-09-01T14:23:03;1.20;;;1.10;;
11711;SDS011;5912;51.034;6.984;2022-09-01T14:25:31;1.15;;;0.98;;
11711;SDS011;5912;51.034;6.984;2022-09-01T14:27:57;1.20;;;1.08;;
11711;SDS011;5912;51.034;6.984;2022-09-01T14:30:25;2.85;;;1.27;;
11711;SDS011;5912;51.034;6.984;2022-09-01T14:32:52;1.13;;;1.02;;
11711;SDS011;5912;51.034;6.984;2022-09-01T14:35:19;1.25;;;1.10;;
11711;SDS011;5912;51.034;6.984;2022-09-01T14:37:48;1.02;;;1.00;;
11711;SDS011;5912;51.034;6.984;2022-09-01T14:40:15;1.27;;;1.00;;
11711;SDS011;5912;51.034;6.984;2022-09-01T14:42:42;1.88;;;1.00;;
11711;SDS011;5912;51.034;6.984;2022-09-01T14:45:10;1.20;;;1.10;;
11711;SDS011;5912;51.034;6.984;2022-09-01T14:47:36;1.73;;;1.17;;
11711;SDS011;5912;51.034;6.984;2022-09-01T14:50:01;1.20;;;1.10;;
11711;SDS011;5912;51.034;6.984;2022-09-01T14:52:27;1.30;;;1.20;;
11711;SDS011;5912;51.034;6.984;2022-09-01T14:54:54;1.50;;;1.40;;
11711;SDS011;5912;51.034;6.984;2022-09-01T14:57:19;2.95;;;1.10;;
11711;SDS011;5912;51.034;6.984;2022-09-01T14:59:45;1.45;;;1.23;;
11711;SDS011;5912;51.034;6.984;2022-09-01T15:02:10;2.05;;;1.40;;
11711;SDS011;5912;51.034;6.984;2022-09-01T15:04:36;2.20;;;1.20;;
11711;SDS011;5912;51.034;6.984;2022-09-01T15:07:01;1.90;;;1.50;;
11711;SDS011;5912;51.034;6.984;2022-09-01T15:09:29;2.25;;;1.55;;
11711;SDS011;5912;51.034;6.984;2022-09-01T15:11:54;1.50;;;1.33;;
11711;SDS011;5912;51.034;6.984;2022-09-01T15:14:20;1.20;;;1.10;;
11711;SDS011;5912;51.034;6.984;2022-09-01T15:16:45;2.38;;;1.60;;
11711;SDS011;5912;51.034;6.984;2022-09-01T15:19:11;2.78;;;1.42;;
11711;SDS011;5912;51.034;6.984;2022-09-01T15:21:37;1.40;;;1.30;;
11711;SDS011;5912;51.034;6.984;2022-09-01T15:24:06;3.35;;;1.65;;
11711;SDS011;5912;51.034;6.984;2022-09-01T15:26:32;2.58;;;2.20;;
11711;SDS011;5912;51.034;6.984;2022-09-01T15:28:58;1.70;;;1.60;;
11711;SDS011;5912;51.034;6.984;2022-09-01T15:31:26;2.35;;;1.73;;
11711;SDS011;5912;51.034;6.984;2022-09-01T15:33:54;2.65;;;1.75;;
11711;SDS011;5912;51.034;6.984;2022-09-01T15:36:21;1.85;;;1.67;;
11711;SDS011;5912;51.034;6.984;2022-09-01T15:38:48;2.60;;;1.65;;
11711;SDS011;5912;51.034;6.984;2022-09-01T15:41:23;2.78;;;1.77;;
11711;SDS011;5912;51.034;6.984;2022-09-01T15:43:53;2.10;;;1.90;;
11711;SDS011;5912;51.034;6.984;2022-09-01T15:46:19;1.98;;;1.48;;
11711;SDS011;5912;51.034;6.984;2022-09-01T15:48:45;1.92;;;1.67;;
11711;SDS011;5912;51.034;6.984;2022-09-01T15:51:25;1.50;;;1.40;;
11711;SDS011;5912;51.034;6.984;2022-09-01T15:53:57;2.08;;;1.70;;
11711;SDS011;5912;51.034;6.984;2022-09-01T15:56:25;1.50;;;1.40;;
11711;SDS011;5912;51.034;6.984;2022-09-01T15:58:51;1.35;;;1.25;;
11711;SDS011;5912;51.034;6.984;2022-09-01T16:01:17;1.60;;;1.30;;
11711;SDS011;5912;51.034;6.984;2022-09-01T16:03:43;3.17;;;1.50;;
11711;SDS011;5912;51.034;6.984;2022-09-01T16:06:08;1.70;;;1.40;;
11711;SDS011;5912;51.034;6.984;2022-09-01T16:08:34;2.38;;;1.30;;
11711;SDS011;5912;51.034;6.984;2022-09-01T16:11:04;1.70;;;1.30;;
11711;SDS011;5912;51.034;6.984;2022-09-01T16:13:43;1.80;;;1.40;;
11711;SDS011;5912;51.034;6.984;2022-09-01T16:18:45;2.53;;;1.25;;
11711;SDS011;5912;51.034;6.984;2022-09-01T16:24:17;1.42;;;1.33;;
11711;SDS011;5912;51.034;6.984;2022-09-01T16:26:43;1.40;;;1.30;;
11711;SDS011;5912;51.034;6.984;2022-09-01T16:29:14;3.08;;;1.50;;
11711;SDS011;5912;51.034;6.984;2022-09-01T16:31:47;1.45;;;1.35;;
11711;SDS011;5912;51.034;6.984;2022-09-01T16:34:17;1.50;;;1.27;;
11711;SDS011;5912;51.034;6.984;2022-09-01T16:37:04;1.52;;;1.35;;